Time;durP1;ratioP1;P1;durP2;ratioP2;P2;SDS_P1;SDS_P2;PMS_P1;PMS_P2;Temp;Humidity;BMP_temperature;BMP_pressure;BME280_temperature;BME280_humidity;BME280_pressure;Samples;Min_cycle;Max_cycle;Signal;HPM_P1;HPM_P2
2023/03/31 00:01:47;;;;;;;50.07;20.37;;;;;;;8.97;62.15;94805.25;5033159;28;20180;-80
2023/03/31 00:04:12;;;;;;;38.63;18.80;;;;;;;9.01;62.38;94816.97;5032897;28;20180;-80
2023/03/31 00:06:41;;;;;;;54.13;23.75;;;;;;;8.88;62.79;94813.53;5031677;28;20452;-80
2023/03/31 00:09:20;;;;;;;53.93;20.93;;;;;;;8.84;62.38;94807.88;5032816;28;20186;-80
2023/03/31 00:11:50;;;;;;;51.30;19.03;;;;;;;8.83;62.79;94800.19;5032784;28;20241;-80
2023/03/31 00:14:19;;;;;;;41.53;18.40;;;;;;;8.87;62.27;94802.22;5033041;28;20198;-80
2023/03/31 00:16:45;;;;;;;45.33;18.97;;;;;;;8.89;62.69;94804.66;5032821;28;20237;-80
2023/03/31 00:19:17;;;;;;;38.03;16.77;;;;;;;8.85;63.25;94811.31;5032699;28;20187;-80
2023/03/31 00:21:46;;;;;;;38.70;16.88;;;;;;;8.71;63.55;94810.50;5031458;28;20416;-80
2023/03/31 00:24:13;;;;;;;34.77;16.63;;;;;;;8.77;64.25;94803.63;5032681;28;20179;-80
2023/03/31 00:26:39;;;;;;;32.07;14.37;;;;;;;8.80;63.92;94796.19;5031513;28;20611;-80
2023/03/31 00:29:06;;;;;;;36.47;14.90;;;;;;;8.87;63.54;94791.72;5032454;28;20263;-80
2023/03/31 00:31:32;;;;;;;30.60;13.13;;;;;;;8.98;63.24;94808.69;5032638;28;20621;-80
2023/03/31 00:33:58;;;;;;;36.20;14.97;;;;;;;8.86;63.71;94797.97;5032076;28;20440;-80
2023/03/31 00:36:27;;;;;;;31.63;14.93;;;;;;;8.84;63.20;94784.25;5031799;28;20421;-80
2023/03/31 00:38:55;;;;;;;31.65;14.27;;;;;;;8.89;63.48;94794.16;5030830;28;20467;-80
2023/03/31 00:41:21;;;;;;;30.07;14.50;;;;;;;9.00;63.62;94791.72;5031858;28;20191;-80
2023/03/31 00:44:07;;;;;;;30.40;13.83;;;;;;;9.17;62.97;94786.84;5031756;28;20219;-80
2023/03/31 00:46:47;;;;;;;27.30;12.20;;;;;;;9.11;61.94;94769.28;5031619;28;20270;-80
2023/03/31 00:49:39;;;;;;;28.93;12.57;;;;;;;9.23;62.63;94786.06;5031713;28;20204;-79
2023/03/31 00:52:16;;;;;;;31.20;12.73;;;;;;;9.28;63.81;94780.19;5031008;28;20621;-78
2023/03/31 00:54:46;;;;;;;30.27;13.23;;;;;;;9.24;63.23;94766.66;5030767;28;20182;-78
2023/03/31 00:57:13;;;;;;;31.97;12.03;;;;;;;9.20;62.69;94749.69;5031164;28;20183;-78
2023/03/31 00:59:43;;;;;;;25.43;11.90;;;;;;;9.35;62.75;94775.72;5032223;28;20176;-78
2023/03/31 01:02:11;;;;;;;26.97;11.83;;;;;;;9.41;63.75;94767.84;5031121;28;20266;-78
2023/03/31 01:04:43;;;;;;;25.08;13.20;;;;;;;9.19;63.44;94753.31;5029758;28;20427;-78
2023/03/31 01:07:40;;;;;;;29.00;13.33;;;;;;;9.35;64.01;94775.72;5031871;28;20195;-78
2023/03/31 01:10:07;;;;;;;24.47;11.57;;;;;;;9.39;64.53;94763.81;5030601;28;20266;-78
2023/03/31 01:12:36;;;;;;;28.48;12.00;;;;;;;9.50;65.06;94763.19;5030818;28;20448;-78
2023/03/31 01:15:03;;;;;;;29.80;12.80;;;;;;;9.56;64.08;94764.97;5031883;28;21093;-78
2023/03/31 01:17:29;;;;;;;26.53;11.33;;;;;;;9.59;63.11;94769.81;5032158;28;20172;-78
2023/03/31 01:20:16;;;;;;;25.57;11.50;;;;;;;9.65;63.32;94762.94;5031830;28;20183;-78
2023/03/31 01:23:00;;;;;;;23.60;12.80;;;;;;;9.57;64.07;94765.78;5009482;28;20418;-78
2023/03/31 01:25:49;;;;;;;18.50;10.90;;;;;;;9.63;63.99;94772.84;5031626;28;20194;-78
2023/03/31 01:28:43;;;;;;;24.70;11.97;;;;;;;9.75;63.65;94773.81;5024275;28;20187;-78
2023/03/31 01:31:50;;;;;;;27.13;13.88;;;;;;;9.68;63.98;94773.03;5028312;28;20424;-78
2023/03/31 01:34:43;;;;;;;23.27;11.73;;;;;;;9.72;64.15;94782.09;5023362;28;20964;-77
2023/03/31 01:37:33;;;;;;;23.37;11.90;;;;;;;9.80;64.62;94774.00;5031353;28;20183;-78
2023/03/31 01:40:18;;;;;;;25.42;13.75;;;;;;;9.66;63.21;94780.31;5028712;28;20925;-78
2023/03/31 01:43:08;;;;;;;24.23;11.47;;;;;;;9.67;63.68;94789.81;5030164;28;20219;-78
2023/03/31 01:46:07;;;;;;;28.57;12.10;;;;;;;9.71;63.57;94778.66;5031673;28;20179;-78
2023/03/31 01:48:47;;;;;;;30.23;14.13;;;;;;;9.69;62.98;94796.47;5014815;28;20511;-78
2023/03/31 01:51:12;;;;;;;22.93;11.47;;;;;;;9.69;62.80;94800.91;5031266;28;20179;-78
2023/03/31 01:54:19;;;;;;;19.77;10.60;;;;;;;9.77;62.27;94808.59;5031056;28;20203;-78
2023/03/31 01:56:56;;;;;;;47.17;20.30;;;;;;;9.70;63.62;94797.28;5029352;28;20416;-78
2023/03/31 01:59:26;;;;;;;36.67;14.87;;;;;;;9.71;63.41;94807.59;5031371;28;20679;-78
2023/03/31 02:02:07;;;;;;;40.40;14.43;;;;;;;9.77;63.18;94809.38;5031238;28;20657;-78
2023/03/31 02:04:55;;;;;;;67.93;26.00;;;;;;;9.85;63.00;94813.63;5031077;28;20656;-78
2023/03/31 02:07:29;;;;;;;74.90;29.40;;;;;;;9.91;63.62;94807.53;5031277;28;20202;-78
2023/03/31 02:10:00;;;;;;;69.07;23.57;;;;;;;9.90;63.51;94811.16;5031241;28;20235;-78
2023/03/31 02:12:29;;;;;;;47.93;18.97;;;;;;;9.90;63.47;94810.38;5031040;28;20417;-78
2023/03/31 02:14:57;;;;;;;81.17;26.33;;;;;;;9.89;63.76;94817.44;5034761;28;20512;-78
2023/03/31 02:17:29;;;;;;;68.53;25.63;;;;;;;9.89;63.46;94806.91;5033250;28;20176;-78
2023/03/31 02:19:58;;;;;;;37.63;14.50;;;;;;;9.97;61.69;94827.72;5026858;28;20183;-78
2023/03/31 02:22:28;;;;;;;38.30;14.90;;;;;;;10.00;64.48;94834.41;5033346;28;20420;-78
2023/03/31 02:24:54;;;;;;;29.50;12.48;;;;;;;9.94;64.63;94836.06;5033258;28;20424;-78
2023/03/31 02:27:24;;;;;;;21.92;10.25;;;;;;;9.56;62.89;94804.38;5032939;28;20412;-78
2023/03/31 02:29:50;;;;;;;14.53;7.20;;;;;;;9.94;62.81;94837.88;5034411;28;20203;-78
2023/03/31 02:32:19;;;;;;;9.73;3.75;;;;;;;10.09;62.77;94847.13;5032800;28;20463;-78
2023/03/31 02:34:44;;;;;;;5.32;2.58;;;;;;;10.24;62.50;94825.03;5032296;28;20525;-78
2023/03/31 02:37:11;;;;;;;4.63;1.90;;;;;;;10.49;62.53;94833.81;5032668;28;20459;-78
2023/03/31 02:39:40;;;;;;;2.57;1.60;;;;;;;10.51;63.19;94822.06;5031636;28;20429;-77
2023/03/31 02:42:06;;;;;;;5.65;2.20;;;;;;;10.82;64.50;94842.31;5031887;28;20433;-77
2023/03/31 02:44:35;;;;;;;5.53;2.30;;;;;;;10.98;64.50;94848.94;5034135;28;20178;-78
2023/03/31 02:47:07;;;;;;;4.22;2.08;;;;;;;10.94;66.26;94835.38;5032456;28;20982;-78
2023/03/31 02:49:34;;;;;;;5.43;2.53;;;;;;;11.09;67.13;94844.78;5033877;28;20179;-78
2023/03/31 02:52:30;;;;;;;3.95;1.98;;;;;;;11.05;65.81;94836.50;5033264;28;20856;-78
2023/03/31 02:55:04;;;;;;;5.37;2.20;;;;;;;11.06;67.05;94824.16;5032795;28;20421;-77
2023/03/31 02:57:57;;;;;;;4.82;2.42;;;;;;;11.03;66.73;94821.94;5032980;28;20933;-78
2023/03/31 03:00:40;;;;;;;2.87;2.17;;;;;;;11.03;66.10;94814.84;5033820;28;20179;-77
2023/03/31 03:03:21;;;;;;;3.93;2.10;;;;;;;10.95;65.45;94804.56;5033775;28;20218;-78
2023/03/31 03:05:58;;;;;;;2.67;2.10;;;;;;;10.99;65.53;94811.00;5025901;28;20182;-78
2023/03/31 03:08:31;;;;;;;3.77;2.27;;;;;;;11.00;65.98;94796.81;5033603;28;20625;-78
2023/03/31 03:11:23;;;;;;;5.87;2.87;;;;;;;10.99;66.19;94800.47;5032829;28;20183;-78
2023/03/31 03:14:09;;;;;;;7.97;2.95;;;;;;;11.00;65.83;94790.75;5033105;28;20512;-78
2023/03/31 03:16:40;;;;;;;4.80;2.53;;;;;;;10.92;65.74;94770.75;5033506;28;20179;-78
2023/03/31 03:19:06;;;;;;;6.60;3.50;;;;;;;10.95;65.35;94784.31;5033776;28;20201;-78
2023/03/31 03:21:32;;;;;;;5.97;2.40;;;;;;;10.98;64.83;94781.22;5031921;28;20641;-78
2023/03/31 03:23:59;;;;;;;4.87;2.63;;;;;;;10.98;64.43;94783.84;5026124;28;20178;-79
2023/03/31 03:26:27;;;;;;;5.23;2.80;;;;;;;11.00;65.15;94783.66;5033298;28;20258;-79
2023/03/31 03:28:54;;;;;;;6.00;2.80;;;;;;;11.01;65.31;94780.00;5033487;28;20172;-79
2023/03/31 03:31:22;;;;;;;5.13;3.30;;;;;;;11.04;64.95;94778.78;5033723;28;20617;-78
2023/03/31 03:33:51;;;;;;;8.80;3.67;;;;;;;11.03;65.20;94779.78;5031722;28;20198;-79
2023/03/31 03:36:17;;;;;;;7.47;4.00;;;;;;;11.06;64.37;94772.28;5028725;28;20540;-79
2023/03/31 03:38:42;;;;;;;9.57;5.03;;;;;;;11.06;64.39;94758.28;5033047;28;20215;-78
2023/03/31 03:41:09;;;;;;;10.37;4.27;;;;;;;11.10;64.19;94768.16;5029575;28;20214;-77
2023/03/31 03:43:34;;;;;;;5.57;3.70;;;;;;;11.13;64.44;94761.66;5025538;28;20219;-78
2023/03/31 03:45:59;;;;;;;5.63;2.83;;;;;;;11.14;64.32;94758.03;5023665;28;20562;-79
2023/03/31 03:48:25;;;;;;;5.13;3.20;;;;;;;11.12;64.07;94752.16;5032516;28;20522;-78
2023/03/31 03:50:53;;;;;;;7.63;3.88;;;;;;;11.13;64.35;94749.31;5034323;28;20441;-78
2023/03/31 03:53:19;;;;;;;6.23;3.33;;;;;;;11.11;64.32;94753.16;5034739;28;20207;-78
2023/03/31 03:55:47;;;;;;;8.77;4.07;;;;;;;11.13;64.91;94754.56;5030440;28;20237;-77
2023/03/31 03:58:14;;;;;;;6.00;3.70;;;;;;;11.10;64.44;94756.81;5029607;28;20468;-77
2023/03/31 04:00:39;;;;;;;6.85;3.70;;;;;;;11.06;64.42;94763.56;5031048;28;20436;-76
2023/03/31 04:03:05;;;;;;;6.50;3.43;;;;;;;10.85;64.66;94748.94;5030674;28;20412;-77
2023/03/31 04:05:30;;;;;;;7.20;3.10;;;;;;;10.76;64.89;94734.41;5030558;28;20451;-79
2023/03/31 04:07:55;;;;;;;6.57;3.47;;;;;;;11.03;64.38;94767.44;5037193;28;20179;-78
2023/03/31 04:10:21;;;;;;;10.30;5.80;;;;;;;11.03;64.58;94749.00;5044516;28;20980;-79
2023/03/31 04:12:46;;;;;;;8.47;4.80;;;;;;;11.15;65.16;94768.34;5032633;28;20202;-79
2023/03/31 04:15:11;;;;;;;7.90;3.80;;;;;;;11.17;65.68;94774.19;5040939;28;20550;-80
2023/03/31 04:17:37;;;;;;;7.10;4.20;;;;;;;11.19;66.82;94766.88;5039544;28;20255;-80
2023/03/31 04:20:08;;;;;;;10.13;4.30;;;;;;;11.14;67.31;94768.56;5027318;28;20180;-78
2023/03/31 04:22:39;;;;;;;9.67;4.80;;;;;;;10.79;67.84;94726.91;5032589;28;20183;-79
2023/03/31 04:25:13;;;;;;;28.80;15.43;;;;;;;10.98;68.32;94772.53;5031904;28;20932;-79
2023/03/31 04:27:54;;;;;;;18.33;8.83;;;;;;;10.97;68.67;94765.66;5032760;28;20697;-78
2023/03/31 04:30:29;;;;;;;10.93;4.67;;;;;;;10.86;68.30;94748.72;5032387;28;20183;-79
2023/03/31 04:32:57;;;;;;;7.63;3.92;;;;;;;10.92;67.83;94768.94;5030863;28;20941;-77
2023/03/31 04:35:25;;;;;;;7.83;4.60;;;;;;;10.89;67.44;94766.75;5031586;28;20618;-77
2023/03/31 04:37:57;;;;;;;9.60;5.17;;;;;;;10.84;67.25;94763.13;5031051;28;20179;-78
2023/03/31 04:40:24;;;;;;;10.73;5.40;;;;;;;10.82;67.40;94750.16;5031712;28;20176;-78
2023/03/31 04:42:50;;;;;;;13.60;6.32;;;;;;;10.67;67.41;94733.06;5029834;28;20941;-78
2023/03/31 04:45:16;;;;;;;11.63;5.83;;;;;;;10.88;67.08;94759.84;5031547;28;20175;-78
2023/03/31 04:47:42;;;;;;;10.77;5.23;;;;;;;10.78;67.03;94738.47;5032009;28;20237;-79
2023/03/31 04:50:09;;;;;;;16.07;6.53;;;;;;;10.93;67.38;94754.75;5031120;28;20180;-79
2023/03/31 04:52:34;;;;;;;9.57;5.67;;;;;;;10.90;67.46;94739.34;5031124;28;20175;-79
2023/03/31 04:55:00;;;;;;;12.13;6.77;;;;;;;10.91;66.90;94735.69;5030284;28;20487;-78
2023/03/31 04:57:25;;;;;;;9.60;4.77;;;;;;;10.93;65.81;94736.31;5030603;28;20424;-80
2023/03/31 04:59:51;;;;;;;10.43;4.97;;;;;;;11.12;66.24;94744.25;5031422;28;20183;-80
2023/03/31 05:02:22;;;;;;;18.43;5.37;;;;;;;10.95;66.28;94710.56;5030736;28;20267;-81
2023/03/31 05:04:50;;;;;;;12.93;4.80;;;;;;;11.10;66.85;94712.03;5031206;28;20176;-82
2023/03/31 05:07:17;;;;;;;3.63;2.17;;;;;;;11.25;63.81;94723.84;5031024;28;20723;-82
2023/03/31 05:09:42;;;;;;;5.63;1.70;;;;;;;11.44;60.64;94735.22;5032162;28;20237;-81
2023/03/31 05:12:08;;;;;;;4.37;1.70;;;;;;;11.59;57.93;94735.66;5031950;28;20175;-77
2023/03/31 05:14:33;;;;;;;3.70;1.70;;;;;;;11.65;57.42;94732.16;5030994;28;20298;-77
2023/03/31 05:16:59;;;;;;;4.77;2.00;;;;;;;11.69;58.08;94722.75;5031318;28;20184;-77
2023/03/31 05:19:24;;;;;;;4.10;1.57;;;;;;;11.73;59.06;94721.31;5035563;28;20181;-77
2023/03/31 05:21:50;;;;;;;7.77;2.00;;;;;;;11.87;58.45;94732.53;5035521;28;20734;-77
2023/03/31 05:24:15;;;;;;;5.93;2.10;;;;;;;11.87;55.24;94710.63;5036264;28;20641;-77
2023/03/31 05:26:43;;;;;;;3.50;1.70;;;;;;;12.07;55.13;94719.91;5040142;28;20182;-78
2023/03/31 05:29:08;;;;;;;2.70;1.50;;;;;;;12.06;54.41;94699.81;5035894;28;20248;-78
2023/03/31 05:31:33;;;;;;;4.07;1.70;;;;;;;12.43;55.80;94726.13;5042269;28;20179;-79
2023/03/31 05:34:02;;;;;;;5.63;1.90;;;;;;;12.74;55.86;94720.56;5036413;28;20254;-77
2023/03/31 05:36:27;;;;;;;3.33;1.90;;;;;;;13.19;53.83;94714.75;5032083;28;20203;-78
2023/03/31 05:38:53;;;;;;;3.27;1.70;;;;;;;13.29;50.89;94712.34;5035522;28;20267;-77
2023/03/31 05:41:18;;;;;;;5.93;2.47;;;;;;;13.03;50.23;94695.09;5039859;28;20579;-75
2023/03/31 05:43:43;;;;;;;3.93;1.70;;;;;;;13.04;51.44;94722.31;5033785;28;20224;-78
2023/03/31 05:46:09;;;;;;;4.33;1.63;;;;;;;12.99;50.32;94707.13;5030918;28;20192;-77
2023/03/31 05:48:36;;;;;;;3.27;1.97;;;;;;;13.17;50.73;94717.63;5040248;28;20180;-78
2023/03/31 05:51:01;;;;;;;3.37;1.80;;;;;;;13.46;50.69;94723.84;5042235;28;20168;-77
2023/03/31 05:53:27;;;;;;;3.40;1.70;;;;;;;13.79;50.69;94719.75;5036829;28;20212;-77
2023/03/31 05:55:58;;;;;;;7.07;2.13;;;;;;;14.03;49.58;94725.78;5038080;28;20179;-77
2023/03/31 05:58:24;;;;;;;5.37;1.70;;;;;;;14.03;49.45;94702.75;5042996;28;20188;-78
2023/03/31 06:00:52;;;;;;;5.00;1.57;;;;;;;14.10;47.50;94732.53;5034421;28;20219;-77
2023/03/31 06:03:18;;;;;;;7.90;1.70;;;;;;;13.86;47.82;94697.41;5034481;28;20661;-77
2023/03/31 06:05:52;;;;;;;1.97;1.77;;;;;;;13.92;48.85;94732.72;5029390;28;20203;-77
2023/03/31 06:08:18;;;;;;;2.03;1.73;;;;;;;13.91;49.71;94734.56;5033549;28;20179;-77
2023/03/31 06:10:43;;;;;;;3.73;1.83;;;;;;;13.58;48.32;94735.19;5034493;28;20179;-77
2023/03/31 06:13:09;;;;;;;6.47;1.97;;;;;;;13.19;49.24;94712.13;5028170;28;20242;-78
2023/03/31 06:15:34;;;;;;;3.43;2.00;;;;;;;13.11;49.86;94723.81;5030531;28;20644;-77
2023/03/31 06:18:00;;;;;;;3.07;1.37;;;;;;;13.07;49.98;94733.22;5034061;28;20184;-78
2023/03/31 06:20:25;;;;;;;4.20;2.00;;;;;;;13.06;49.72;94728.19;5034182;28;20563;-78
2023/03/31 06:22:50;;;;;;;2.60;1.60;;;;;;;13.06;50.27;94722.91;5034602;28;20266;-78
2023/03/31 06:25:16;;;;;;;3.13;1.63;;;;;;;13.03;50.06;94726.78;5034614;28;20623;-78
2023/03/31 06:27:41;;;;;;;5.57;1.87;;;;;;;13.22;50.06;94722.25;5034258;28;20218;-77
2023/03/31 06:30:07;;;;;;;3.13;2.03;;;;;;;13.54;50.07;94717.38;5034593;28;20199;-79
2023/03/31 06:32:33;;;;;;;2.83;2.03;;;;;;;14.06;48.47;94727.97;5034248;28;20241;-78
2023/03/31 06:34:58;;;;;;;6.23;2.63;;;;;;;14.58;46.84;94724.22;5034123;28;20175;-78
2023/03/31 06:37:24;;;;;;;5.63;3.03;;;;;;;15.19;46.54;94719.09;5030371;28;20202;-77
2023/03/31 06:39:49;;;;;;;6.25;2.35;;;;;;;15.85;44.54;94726.13;5034295;28;20175;-77
2023/03/31 06:42:15;;;;;;;4.82;2.03;;;;;;;16.13;43.39;94727.81;5033847;28;20226;-77
2023/03/31 06:44:40;;;;;;;6.40;2.90;;;;;;;16.21;43.66;94730.03;5033926;28;20176;-77
2023/03/31 06:47:05;;;;;;;4.40;2.88;;;;;;;16.55;43.73;94733.31;5033525;28;20578;-78
2023/03/31 06:49:31;;;;;;;6.82;3.35;;;;;;;16.79;43.15;94745.25;5033754;28;20175;-78
2023/03/31 06:51:56;;;;;;;5.13;2.72;;;;;;;16.65;43.24;94733.44;5033638;28;20186;-77
2023/03/31 06:54:22;;;;;;;9.52;3.20;;;;;;;16.18;43.50;94735.81;5033943;28;20273;-77
2023/03/31 06:56:47;;;;;;;6.15;3.10;;;;;;;16.03;45.33;94740.97;5033483;28;20606;-77
2023/03/31 06:59:13;;;;;;;7.72;2.60;;;;;;;16.06;44.11;94735.16;5032137;28;20214;-77
2023/03/31 07:01:41;;;;;;;6.20;2.75;;;;;;;16.48;44.91;94732.72;5033043;28;20263;-77
2023/03/31 07:04:06;;;;;;;4.95;2.55;;;;;;;16.98;43.61;94711.94;5033399;28;20254;-77
2023/03/31 07:06:31;;;;;;;8.65;3.08;;;;;;;17.45;43.09;94719.19;5033426;28;20263;-77
2023/03/31 07:08:57;;;;;;;7.72;3.67;;;;;;;17.97;41.97;94697.94;5033282;28;20199;-76
2023/03/31 07:11:22;;;;;;;13.75;4.18;;;;;;;18.63;41.67;94700.00;5033130;28;20275;-75
2023/03/31 07:13:48;;;;;;;9.50;5.43;;;;;;;19.01;38.49;94686.19;5033370;28;20210;-77
2023/03/31 07:16:13;;;;;;;12.82;6.28;;;;;;;19.14;37.97;94690.16;5032176;28;20190;-77
2023/03/31 07:18:40;;;;;;;8.57;4.30;;;;;;;19.22;37.37;94685.06;5033270;28;20214;-77
2023/03/31 07:21:07;;;;;;;5.70;2.80;;;;;;;18.36;38.50;94678.84;5033256;28;20547;-77
2023/03/31 07:23:33;;;;;;;4.47;3.15;;;;;;;17.96;40.06;94668.88;5032942;28;20179;-77
2023/03/31 07:26:01;;;;;;;7.85;3.05;;;;;;;18.16;39.85;94684.16;5033443;28;20172;-77
2023/03/31 07:28:30;;;;;;;8.43;2.75;;;;;;;18.20;40.63;94663.91;5048589;28;20187;-78
2023/03/31 07:30:55;;;;;;;3.25;2.17;;;;;;;18.61;40.79;94678.94;5025209;28;20180;-78
2023/03/31 07:33:21;;;;;;;7.38;2.50;;;;;;;18.72;39.49;94677.09;5032963;28;20203;-77
2023/03/31 07:35:46;;;;;;;15.32;3.38;;;;;;;18.20;39.68;94678.03;5032939;28;20181;-78
2023/03/31 07:38:12;;;;;;;11.15;3.42;;;;;;;18.32;40.18;94683.94;5031801;28;20187;-78
2023/03/31 07:40:38;;;;;;;15.60;3.65;;;;;;;18.47;40.03;94675.16;5033085;28;20184;-78
2023/03/31 07:43:04;;;;;;;7.07;2.80;;;;;;;18.54;40.38;94675.69;5031594;28;20682;-78
2023/03/31 07:45:30;;;;;;;5.18;2.50;;;;;;;18.21;39.78;94676.16;5032842;28;20195;-77
2023/03/31 07:47:56;;;;;;;12.38;3.25;;;;;;;18.53;42.22;94683.94;5030810;28;20215;-77
2023/03/31 07:50:22;;;;;;;7.63;3.28;;;;;;;19.30;40.51;94682.94;5032517;28;20203;-77
2023/03/31 07:52:48;;;;;;;4.97;2.90;;;;;;;20.01;38.25;94680.09;5032301;28;20179;-78
2023/03/31 07:55:14;;;;;;;5.80;3.03;;;;;;;20.33;35.88;94685.81;5032393;28;20657;-78
2023/03/31 07:57:40;;;;;;;5.80;3.13;;;;;;;20.68;37.22;94672.28;5032433;28;20176;-78
2023/03/31 08:00:08;;;;;;;5.13;3.42;;;;;;;21.34;36.39;94671.78;5032362;28;20187;-78
2023/03/31 08:02:34;;;;;;;6.68;3.22;;;;;;;21.72;35.58;94678.06;5032215;28;20180;-77
2023/03/31 08:05:00;;;;;;;9.40;2.78;;;;;;;22.10;35.27;94662.94;5031780;28;20234;-78
2023/03/31 08:07:29;;;;;;;4.95;2.22;;;;;;;22.44;32.89;94672.69;5031862;28;20184;-77
2023/03/31 08:09:55;;;;;;;8.75;3.05;;;;;;;22.05;33.14;94652.28;5032257;28;20271;-78
2023/03/31 08:12:21;;;;;;;8.70;2.80;;;;;;;21.13;33.97;94656.94;5032454;28;20207;-79
2023/03/31 08:14:46;;;;;;;5.57;2.92;;;;;;;20.48;36.01;94653.69;5032521;28;20699;-78
2023/03/31 08:17:12;;;;;;;10.50;2.90;;;;;;;19.70;36.57;94645.50;5033444;28;20238;-78
2023/03/31 08:19:37;;;;;;;11.98;3.20;;;;;;;19.53;37.94;94655.69;5036468;28;20703;-78
2023/03/31 08:22:03;;;;;;;12.13;3.58;;;;;;;19.37;36.54;94660.22;5036711;28;20168;-78
2023/03/31 08:24:28;;;;;;;5.43;2.92;;;;;;;19.63;38.18;94654.88;5033245;28;20184;-76
2023/03/31 08:26:54;;;;;;;19.38;4.03;;;;;;;19.96;38.03;94654.22;5032761;28;20179;-78
2023/03/31 08:29:19;;;;;;;6.05;2.80;;;;;;;20.03;38.72;94637.88;5033072;28;20183;-76
2023/03/31 08:31:44;;;;;;;5.78;2.42;;;;;;;20.45;37.90;94650.78;5033052;28;20176;-77
2023/03/31 08:34:10;;;;;;;9.23;2.70;;;;;;;20.34;36.67;94644.69;5028011;28;20287;-79
2023/03/31 08:36:36;;;;;;;12.20;2.65;;;;;;;20.49;36.66;94641.94;5031170;28;20258;-78
2023/03/31 08:39:01;;;;;;;6.05;2.65;;;;;;;20.74;35.79;94648.19;5032378;28;20236;-78
2023/03/31 08:41:51;;;;;;;6.63;2.97;;;;;;;21.19;35.95;94653.16;5032407;28;20621;-78
2023/03/31 08:44:31;;;;;;;11.05;3.35;;;;;;;20.59;35.29;94647.19;5032171;28;20694;-77
2023/03/31 08:46:59;;;;;;;5.70;2.63;;;;;;;19.83;36.75;94652.91;5032201;28;20179;-78
2023/03/31 08:49:28;;;;;;;13.18;3.92;;;;;;;19.62;38.39;94606.00;5032149;28;20238;-78
2023/03/31 08:52:03;;;;;;;6.82;2.08;;;;;;;;;;5032268;28;20180;-78
2023/03/31 08:54:37;;;;;;;10.50;3.05;;;;;;;19.06;38.84;94630.13;5032184;28;20223;-77
2023/03/31 08:57:11;;;;;;;11.20;2.65;;;;;;;18.94;38.68;94616.25;5031936;28;20175;-78
2023/03/31 08:59:37;;;;;;;9.82;2.25;;;;;;;18.71;40.44;94596.28;5026817;28;20230;-76
2023/03/31 09:02:27;;;;;;;5.30;1.80;;;;;;;19.08;39.13;94628.00;5022321;28;20180;-78
2023/03/31 09:05:05;;;;;;;6.40;2.55;;;;;;;18.66;39.17;94617.63;5021313;28;20184;-76
2023/03/31 09:07:37;;;;;;;5.38;2.05;;;;;;;18.24;38.07;94617.81;5024464;28;20190;-79
2023/03/31 09:10:19;;;;;;;7.90;2.70;;;;;;;18.26;39.99;94617.53;5024075;28;20176;-76
2023/03/31 09:12:50;;;;;;;5.38;2.70;;;;;;;18.61;40.04;94619.47;5024548;28;20621;-76
2023/03/31 09:15:42;;;;;;;4.82;2.40;;;;;;;18.90;39.01;94611.72;5031542;28;20238;-77
2023/03/31 09:18:45;;;;;;;5.07;2.13;;;;;;;19.04;39.09;94618.13;5029101;28;20191;-76
2023/03/31 09:21:31;;;;;;;4.53;2.67;;;;;;;19.35;38.81;94610.88;5029411;28;20198;-77
2023/03/31 09:24:22;;;;;;;7.20;2.35;;;;;;;18.91;36.91;94576.78;5027470;28;20254;-75
2023/03/31 09:27:11;;;;;;;9.88;3.75;;;;;;;18.89;37.78;94608.28;5027878;28;20258;-76
2023/03/31 09:29:57;;;;;;;5.93;2.60;;;;;;;18.79;38.78;94589.59;5035220;28;20198;-76
2023/03/31 09:32:29;;;;;;;6.70;4.38;;;;;;;18.94;39.02;94602.16;5050826;28;20175;-76
2023/03/31 09:35:00;;;;;;;8.15;4.57;;;;;;;18.94;38.68;94615.47;5027597;28;20214;-77
2023/03/31 09:37:29;;;;;;;10.98;4.18;;;;;;;18.88;38.91;94603.19;5033990;28;20202;-76
2023/03/31 09:39:59;;;;;;;5.18;3.15;;;;;;;18.71;38.16;94606.94;5033564;28;20179;-76
2023/03/31 09:42:25;;;;;;;7.38;3.45;;;;;;;18.71;39.13;94611.47;5033481;28;20621;-76
2023/03/31 09:44:50;;;;;;;10.77;5.57;;;;;;;18.73;39.45;94596.00;5033526;28;20184;-76
2023/03/31 09:47:27;;;;;;;5.13;3.92;;;;;;;18.64;37.80;94598.41;5032439;28;20168;-76
2023/03/31 09:49:53;;;;;;;7.35;4.60;;;;;;;18.44;39.59;94585.03;5031914;28;20217;-75
2023/03/31 09:52:36;;;;;;;6.97;3.25;;;;;;;18.45;40.42;94586.66;5033915;28;20187;-77
2023/03/31 09:55:08;;;;;;;8.30;2.83;;;;;;;18.40;39.95;94589.31;5035328;28;20214;-77
2023/03/31 09:57:38;;;;;;;9.60;3.42;;;;;;;18.38;39.75;94583.44;5034081;28;20218;-77
2023/03/31 10:00:17;;;;;;;4.85;2.45;;;;;;;18.40;39.64;94581.31;5033468;28;20187;-77
2023/03/31 10:02:51;;;;;;;5.72;2.13;;;;;;;18.48;39.73;94578.94;5033480;28;20175;-77
2023/03/31 10:05:28;;;;;;;6.50;3.30;;;;;;;18.54;40.63;94574.38;5032216;28;20179;-77
2023/03/31 10:08:21;;;;;;;5.97;2.03;;;;;;;18.56;38.77;94574.94;5033392;28;20262;-77
2023/03/31 10:11:10;;;;;;;12.57;3.88;;;;;;;18.52;39.46;94560.50;5033307;28;20179;-77
2023/03/31 10:13:45;;;;;;;4.55;2.72;;;;;;;18.27;38.43;94555.97;5025936;28;20195;-77
2023/03/31 10:16:22;;;;;;;4.30;1.67;;;;;;;17.98;38.81;94553.03;5032444;28;20679;-77
2023/03/31 10:18:48;;;;;;;12.93;2.72;;;;;;;17.94;39.39;94556.47;5032367;28;20724;-77
2023/03/31 10:21:24;;;;;;;5.43;2.65;;;;;;;18.02;40.07;94556.75;5032416;28;20183;-77
2023/03/31 10:23:51;;;;;;;6.82;2.60;;;;;;;17.86;40.02;94549.00;5032466;28;20574;-77
2023/03/31 10:26:27;;;;;;;6.68;2.83;;;;;;;17.93;40.91;94545.03;5032658;28;20175;-77
2023/03/31 10:28:54;;;;;;;6.53;2.63;;;;;;;17.90;39.80;94548.19;5024762;28;20237;-77
2023/03/31 10:31:24;;;;;;;13.70;3.20;;;;;;;17.83;39.59;94544.19;5032981;28;20164;-77
2023/03/31 10:33:51;;;;;;;6.00;3.03;;;;;;;17.81;39.25;94527.69;5032430;28;20257;-77
2023/03/31 10:36:36;;;;;;;5.50;2.83;;;;;;;17.77;40.87;94547.91;5032027;28;20257;-77
2023/03/31 10:39:06;;;;;;;7.82;4.55;;;;;;;17.63;42.52;94521.81;5032836;28;20254;-78
2023/03/31 10:41:32;;;;;;;11.68;5.05;;;;;;;17.72;42.64;94530.09;5032759;28;20184;-77
2023/03/31 10:44:02;;;;;;;7.78;3.53;;;;;;;17.54;43.11;94535.84;5032536;28;20325;-77
2023/03/31 10:46:51;;;;;;;12.13;4.15;;;;;;;17.33;43.67;94501.19;5032641;28;20184;-77
2023/03/31 10:49:26;;;;;;;8.52;3.28;;;;;;;17.58;43.34;94529.72;5032671;28;20172;-77
2023/03/31 10:51:57;;;;;;;5.53;2.35;;;;;;;17.62;43.93;94525.53;5032507;28;20172;-77
2023/03/31 10:54:24;;;;;;;22.52;3.35;;;;;;;17.67;44.30;94511.41;5033851;28;20204;-77
2023/03/31 10:56:52;;;;;;;6.35;3.25;;;;;;;17.66;42.53;94486.66;5034100;28;20176;-77
2023/03/31 10:59:28;;;;;;;11.05;3.05;;;;;;;17.83;40.78;94510.38;5033873;28;20175;-76
2023/03/31 11:01:56;;;;;;;8.63;2.80;;;;;;;17.76;40.51;94522.34;5033775;28;20178;-78
2023/03/31 11:04:40;;;;;;;5.60;2.42;;;;;;;17.86;41.77;94509.06;5034152;28;20254;-79
2023/03/31 11:07:43;;;;;;;5.15;3.53;;;;;;;17.95;40.91;94510.13;5034755;28;20174;-76
2023/03/31 11:10:43;;;;;;;4.05;2.40;;;;;;;17.88;41.33;94502.41;5033945;28;20641;-77
2023/03/31 11:13:15;;;;;;;7.00;4.53;;;;;;;17.87;41.17;94495.47;5035148;28;20634;-78
2023/03/31 11:15:43;;;;;;;11.25;4.43;;;;;;;17.90;40.30;94497.59;5034023;28;20652;-77
2023/03/31 11:18:23;;;;;;;11.77;3.80;;;;;;;17.82;41.03;94503.44;5033615;28;20556;-77
2023/03/31 11:20:52;;;;;;;8.65;3.03;;;;;;;17.71;41.71;94489.34;5026880;28;20180;-78
2023/03/31 11:23:45;;;;;;;5.60;3.08;;;;;;;17.60;41.98;94489.53;5033492;28;20283;-78
2023/03/31 11:26:34;;;;;;;7.13;2.80;;;;;;;17.62;42.13;94482.13;5032905;28;20195;-79
2023/03/31 11:29:11;;;;;;;5.03;2.85;;;;;;;17.67;42.50;94474.94;5022423;28;20676;-76
2023/03/31 11:31:43;;;;;;;6.65;3.22;;;;;;;17.72;42.21;94471.50;5033329;28;20226;-76
2023/03/31 11:34:20;;;;;;;6.78;3.80;;;;;;;17.73;42.13;94470.41;5032904;28;20214;-77
2023/03/31 11:37:04;;;;;;;5.55;3.05;;;;;;;17.61;41.73;94464.53;5031502;28;20167;-76
2023/03/31 11:39:58;;;;;;;7.50;2.65;;;;;;;17.58;42.10;94462.38;5029023;28;20203;-78
2023/03/31 11:42:33;;;;;;;15.88;9.40;;;;;;;17.55;43.00;94465.59;5028982;28;20673;-76
2023/03/31 11:45:16;;;;;;;13.63;8.63;;;;;;;17.38;42.17;94435.75;5033268;28;20560;-78
2023/03/31 11:47:45;;;;;;;9.68;4.30;;;;;;;17.54;42.57;94458.66;5031331;28;20186;-77
2023/03/31 11:50:20;;;;;;;14.27;6.53;;;;;;;17.59;43.08;94456.00;5032467;28;20175;-77
2023/03/31 11:53:28;;;;;;;14.23;3.90;;;;;;;17.62;43.37;94445.66;5032750;28;20748;-77